Luxora, Arkansas
Current Conditions -  °F | °C
As of 11:53 PM on Thursday 30 Oct 2014 (Local Time) from KHKA Reporting Station
Clear Clear  
Wind Chill: 55°   Ceiling: Unl
Heat Index: 55°   Visibility: 10mi
Dew Point: 50°   Wind: 6mph
Humidity: 83%   Direction: 160°SSE
Pressure: 29.99"   Gusts: NA
Location:  35.76°N, 89.93°W
Report Text: KHKA 310453Z AUTO 16005KT 10SM CLR 13/10 A2999 RMK AO2 SLP154 T01280100
Loading
Personal Weather Stations






























Interactive Weather Map
Tropical Storm Tracking
New forecast layout! Learn more

10-Day Weather Forecast

Advertisements
Track Severe Weather on mobile